sensor_id;sensor_type;location;lat;lon;timestamp;temperature;humidity
66752;SHT31;53663;42.676;23.238;2023-04-01T00:01:10;13.71;43.41
66752;SHT31;53663;42.676;23.238;2023-04-01T00:03:37;13.67;43.74
66752;SHT31;53663;42.676;23.238;2023-04-01T00:06:02;13.60;43.36
66752;SHT31;53663;42.676;23.238;2023-04-01T00:08:29;13.69;43.60
66752;SHT31;53663;42.676;23.238;2023-04-01T00:10:55;13.70;43.43
66752;SHT31;53663;42.676;23.238;2023-04-01T00:13:22;13.67;43.25
66752;SHT31;53663;42.676;23.238;2023-04-01T00:15:48;13.74;42.99
66752;SHT31;53663;42.676;23.238;2023-04-01T00:18:14;13.78;43.14
66752;SHT31;53663;42.676;23.238;2023-04-01T00:20:48;13.80;42.29
66752;SHT31;53663;42.676;23.238;2023-04-01T00:23:15;13.84;42.48
66752;SHT31;53663;42.676;23.238;2023-04-01T00:25:41;13.86;42.41
66752;SHT31;53663;42.676;23.238;2023-04-01T00:28:06;13.86;42.50
66752;SHT31;53663;42.676;23.238;2023-04-01T00:30:32;13.86;42.66
66752;SHT31;53663;42.676;23.238;2023-04-01T00:32:57;13.78;42.75
66752;SHT31;53663;42.676;23.238;2023-04-01T00:35:23;13.77;43.58
66752;SHT31;53663;42.676;23.238;2023-04-01T00:37:49;13.76;44.57
66752;SHT31;53663;42.676;23.238;2023-04-01T00:40:39;13.14;54.04
66752;SHT31;53663;42.676;23.238;2023-04-01T00:43:17;12.54;55.66
66752;SHT31;53663;42.676;23.238;2023-04-01T00:45:45;11.84;58.70
66752;SHT31;53663;42.676;23.238;2023-04-01T00:48:17;11.48;60.33
66752;SHT31;53663;42.676;23.238;2023-04-01T00:50:48;11.41;60.39
66752;SHT31;53663;42.676;23.238;2023-04-01T00:53:14;11.26;60.61
66752;SHT31;53663;42.676;23.238;2023-04-01T00:55:44;10.92;61.98
66752;SHT31;53663;42.676;23.238;2023-04-01T00:58:14;10.75;62.46
66752;SHT31;53663;42.676;23.238;2023-04-01T01:00:40;10.80;62.11
66752;SHT31;53663;42.676;23.238;2023-04-01T01:03:06;10.75;62.58
66752;SHT31;53663;42.676;23.238;2023-04-01T01:06:00;10.69;63.05
66752;SHT31;53663;42.676;23.238;2023-04-01T01:09:10;10.52;63.54
66752;SHT31;53663;42.676;23.238;2023-04-01T01:11:50;10.25;64.42
66752;SHT31;53663;42.676;23.238;2023-04-01T01:14:39;10.22;64.85
66752;SHT31;53663;42.676;23.238;2023-04-01T01:17:19;10.44;63.99
66752;SHT31;53663;42.676;23.238;2023-04-01T01:19:57;10.40;62.70
66752;SHT31;53663;42.676;23.238;2023-04-01T01:28:28;10.45;61.72
66752;SHT31;53663;42.676;23.238;2023-04-01T01:31:25;10.36;61.80
66752;SHT31;53663;42.676;23.238;2023-04-01T01:36:32;10.52;60.96
66752;SHT31;53663;42.676;23.238;2023-04-01T01:39:06;10.42;61.45
66752;SHT31;53663;42.676;23.238;2023-04-01T01:41:34;10.34;61.85
66752;SHT31;53663;42.676;23.238;2023-04-01T01:44:02;10.24;62.45
66752;SHT31;53663;42.676;23.238;2023-04-01T01:46:30;10.20;61.96
66752;SHT31;53663;42.676;23.238;2023-04-01T01:48:57;10.40;62.04
66752;SHT31;53663;42.676;23.238;2023-04-01T01:51:26;10.69;58.42
66752;SHT31;53663;42.676;23.238;2023-04-01T01:53:53;10.73;59.84
66752;SHT31;53663;42.676;23.238;2023-04-01T01:56:22;10.85;55.95
66752;SHT31;53663;42.676;23.238;2023-04-01T01:58:52;11.14;50.79
66752;SHT31;53663;42.676;23.238;2023-04-01T02:01:24;11.51;53.88
66752;SHT31;53663;42.676;23.238;2023-04-01T02:03:52;11.44;54.60
66752;SHT31;53663;42.676;23.238;2023-04-01T02:06:22;11.43;55.54
66752;SHT31;53663;42.676;23.238;2023-04-01T02:09:03;11.27;56.76
66752;SHT31;53663;42.676;23.238;2023-04-01T02:11:34;11.30;56.37
66752;SHT31;53663;42.676;23.238;2023-04-01T02:14:14;11.36;55.88
66752;SHT31;53663;42.676;23.238;2023-04-01T02:16:51;11.14;56.92
66752;SHT31;53663;42.676;23.238;2023-04-01T02:19:18;11.06;57.80
66752;SHT31;53663;42.676;23.238;2023-04-01T02:21:50;10.92;58.01
66752;SHT31;53663;42.676;23.238;2023-04-01T02:24:20;11.02;58.23
66752;SHT31;53663;42.676;23.238;2023-04-01T02:26:50;11.05;58.86
66752;SHT31;53663;42.676;23.238;2023-04-01T02:29:18;11.09;58.24
66752;SHT31;53663;42.676;23.238;2023-04-01T02:31:45;11.20;56.98
66752;SHT31;53663;42.676;23.238;2023-04-01T02:34:13;11.06;58.11
66752;SHT31;53663;42.676;23.238;2023-04-01T02:36:38;11.14;56.85
66752;SHT31;53663;42.676;23.238;2023-04-01T02:39:05;11.13;57.03
66752;SHT31;53663;42.676;23.238;2023-04-01T02:41:30;11.10;57.99
66752;SHT31;53663;42.676;23.238;2023-04-01T02:43:57;10.99;57.97
66752;SHT31;53663;42.676;23.238;2023-04-01T02:46:24;11.06;57.84
66752;SHT31;53663;42.676;23.238;2023-04-01T02:48:49;11.12;57.95
66752;SHT31;53663;42.676;23.238;2023-04-01T02:51:15;11.16;53.42
66752;SHT31;53663;42.676;23.238;2023-04-01T02:53:41;11.30;52.00
66752;SHT31;53663;42.676;23.238;2023-04-01T02:56:06;11.55;47.81
66752;SHT31;53663;42.676;23.238;2023-04-01T02:58:32;11.85;46.74
66752;SHT31;53663;42.676;23.238;2023-04-01T03:00:57;12.11;45.94
66752;SHT31;53663;42.676;23.238;2023-04-01T03:03:23;12.28;45.46
66752;SHT31;53663;42.676;23.238;2023-04-01T03:05:48;12.43;44.32
66752;SHT31;53663;42.676;23.238;2023-04-01T03:08:14;12.59;44.66
66752;SHT31;53663;42.676;23.238;2023-04-01T03:10:40;12.63;44.94
66752;SHT31;53663;42.676;23.238;2023-04-01T03:13:05;12.73;45.41
66752;SHT31;53663;42.676;23.238;2023-04-01T03:15:31;12.76;46.96
66752;SHT31;53663;42.676;23.238;2023-04-01T03:17:57;12.70;47.96
66752;SHT31;53663;42.676;23.238;2023-04-01T03:20:23;12.70;48.87
66752;SHT31;53663;42.676;23.238;2023-04-01T03:22:49;12.60;50.68
66752;SHT31;53663;42.676;23.238;2023-04-01T03:25:14;12.49;52.74
66752;SHT31;53663;42.676;23.238;2023-04-01T03:27:40;12.44;54.25
66752;SHT31;53663;42.676;23.238;2023-04-01T03:30:08;12.30;55.02
66752;SHT31;53663;42.676;23.238;2023-04-01T03:32:41;12.25;56.47
66752;SHT31;53663;42.676;23.238;2023-04-01T03:35:07;12.11;57.08
66752;SHT31;53663;42.676;23.238;2023-04-01T03:37:35;11.92;57.89
66752;SHT31;53663;42.676;23.238;2023-04-01T03:40:00;11.99;58.11
66752;SHT31;53663;42.676;23.238;2023-04-01T03:42:26;11.95;59.16
66752;SHT31;53663;42.676;23.238;2023-04-01T03:44:51;11.95;59.91
66752;SHT31;53663;42.676;23.238;2023-04-01T03:47:17;11.74;58.75
66752;SHT31;53663;42.676;23.238;2023-04-01T03:49:43;11.78;59.00
66752;SHT31;53663;42.676;23.238;2023-04-01T03:52:10;11.79;59.37
66752;SHT31;53663;42.676;23.238;2023-04-01T03:54:36;11.86;62.84
66752;SHT31;53663;42.676;23.238;2023-04-01T03:57:02;11.91;61.06
66752;SHT31;53663;42.676;23.238;2023-04-01T03:59:28;11.86;60.81
66752;SHT31;53663;42.676;23.238;2023-04-01T04:01:53;11.84;65.06
66752;SHT31;53663;42.676;23.238;2023-04-01T04:04:19;11.77;60.57
66752;SHT31;53663;42.676;23.238;2023-04-01T04:06:44;11.41;62.26
66752;SHT31;53663;42.676;23.238;2023-04-01T04:09:10;11.34;61.47
66752;SHT31;53663;42.676;23.238;2023-04-01T04:11:36;11.27;62.51
66752;SHT31;53663;42.676;23.238;2023-04-01T04:14:01;11.20;64.73
66752;SHT31;53663;42.676;23.238;2023-04-01T04:16:27;10.95;66.32
66752;SHT31;53663;42.676;23.238;2023-04-01T04:18:57;11.00;66.76
66752;SHT31;53663;42.676;23.238;2023-04-01T04:21:23;10.79;64.42
66752;SHT31;53663;42.676;23.238;2023-04-01T04:23:48;10.79;63.92
66752;SHT31;53663;42.676;23.238;2023-04-01T04:26:16;10.96;66.42
66752;SHT31;53663;42.676;23.238;2023-04-01T04:28:46;11.03;66.28
66752;SHT31;53663;42.676;23.238;2023-04-01T04:31:21;11.02;67.54
66752;SHT31;53663;42.676;23.238;2023-04-01T04:33:49;11.06;66.96
66752;SHT31;53663;42.676;23.238;2023-04-01T04:36:15;11.14;66.09
66752;SHT31;53663;42.676;23.238;2023-04-01T04:38:41;11.14;67.69
66752;SHT31;53663;42.676;23.238;2023-04-01T04:41:10;11.07;63.93
66752;SHT31;53663;42.676;23.238;2023-04-01T04:43:39;11.19;60.40
66752;SHT31;53663;42.676;23.238;2023-04-01T04:46:10;11.09;61.39
66752;SHT31;53663;42.676;23.238;2023-04-01T04:48:36;11.02;62.56
66752;SHT31;53663;42.676;23.238;2023-04-01T04:51:02;11.10;62.03
66752;SHT31;53663;42.676;23.238;2023-04-01T04:53:28;11.12;63.02
66752;SHT31;53663;42.676;23.238;2023-04-01T04:55:54;11.17;62.18
66752;SHT31;53663;42.676;23.238;2023-04-01T04:58:31;10.59;63.79
66752;SHT31;53663;42.676;23.238;2023-04-01T05:00:58;10.66;65.77
66752;SHT31;53663;42.676;23.238;2023-04-01T05:03:27;10.45;66.41
66752;SHT31;53663;42.676;23.238;2023-04-01T05:05:54;10.59;66.37
66752;SHT31;53663;42.676;23.238;2023-04-01T05:08:20;10.65;67.50
66752;SHT31;53663;42.676;23.238;2023-04-01T05:10:46;10.68;66.11
66752;SHT31;53663;42.676;23.238;2023-04-01T05:13:11;10.27;66.63
66752;SHT31;53663;42.676;23.238;2023-04-01T05:15:37;10.47;62.86
66752;SHT31;53663;42.676;23.238;2023-04-01T05:18:03;9.96;67.83
66752;SHT31;53663;42.676;23.238;2023-04-01T05:20:29;10.28;66.43
66752;SHT31;53663;42.676;23.238;2023-04-01T05:22:58;9.93;66.13
66752;SHT31;53663;42.676;23.238;2023-04-01T05:25:25;10.11;66.81
66752;SHT31;53663;42.676;23.238;2023-04-01T05:27:51;10.64;66.19
66752;SHT31;53663;42.676;23.238;2023-04-01T05:30:17;11.27;62.93
66752;SHT31;53663;42.676;23.238;2023-04-01T05:33:03;13.63;57.46
66752;SHT31;53663;42.676;23.238;2023-04-01T05:35:28;15.13;48.06
66752;SHT31;53663;42.676;23.238;2023-04-01T05:37:54;16.68;44.75
66752;SHT31;53663;42.676;23.238;2023-04-01T05:40:20;18.42;43.62
66752;SHT31;53663;42.676;23.238;2023-04-01T05:42:45;19.28;39.98
66752;SHT31;53663;42.676;23.238;2023-04-01T05:45:11;19.77;38.22
66752;SHT31;53663;42.676;23.238;2023-04-01T05:47:57;21.34;34.29
66752;SHT31;53663;42.676;23.238;2023-04-01T05:50:22;22.39;33.09
66752;SHT31;53663;42.676;23.238;2023-04-01T05:52:48;22.19;33.67
66752;SHT31;53663;42.676;23.238;2023-04-01T05:55:15;20.45;37.54
66752;SHT31;53663;42.676;23.238;2023-04-01T05:57:40;22.43;32.67
66752;SHT31;53663;42.676;23.238;2023-04-01T06:00:06;23.16;31.98
66752;SHT31;53663;42.676;23.238;2023-04-01T06:02:37;20.41;34.79
66752;SHT31;53663;42.676;23.238;2023-04-01T06:05:40;18.21;39.28
66752;SHT31;53663;42.676;23.238;2023-04-01T06:08:12;17.18;41.56
66752;SHT31;53663;42.676;23.238;2023-04-01T06:11:16;15.61;45.86
66752;SHT31;53663;42.676;23.238;2023-04-01T06:22:37;13.96;50.38
66752;SHT31;53663;42.676;23.238;2023-04-01T06:31:20;13.87;49.74
66752;SHT31;53663;42.676;23.238;2023-04-01T06:34:08;13.69;51.19
66752;SHT31;53663;42.676;23.238;2023-04-01T06:39:35;13.56;51.24
66752;SHT31;53663;42.676;23.238;2023-04-01T06:47:54;12.84;52.08
66752;SHT31;53663;42.676;23.238;2023-04-01T06:53:46;12.64;53.39
66752;SHT31;53663;42.676;23.238;2023-04-01T06:56:32;12.97;52.86
66752;SHT31;53663;42.676;23.238;2023-04-01T06:59:17;12.98;52.13
66752;SHT31;53663;42.676;23.238;2023-04-01T07:01:49;13.04;51.49
66752;SHT31;53663;42.676;23.238;2023-04-01T07:07:08;13.45;51.67
66752;SHT31;53663;42.676;23.238;2023-04-01T07:09:51;13.93;49.65
66752;SHT31;53663;42.676;23.238;2023-04-01T07:12:50;14.65;48.31
66752;SHT31;53663;42.676;23.238;2023-04-01T07:15:42;15.13;47.16
66752;SHT31;53663;42.676;23.238;2023-04-01T07:18:18;15.26;47.96
66752;SHT31;53663;42.676;23.238;2023-04-01T07:20:46;15.02;48.53
66752;SHT31;53663;42.676;23.238;2023-04-01T07:23:24;15.38;46.81
66752;SHT31;53663;42.676;23.238;2023-04-01T07:26:31;15.75;45.81
66752;SHT31;53663;42.676;23.238;2023-04-01T07:29:15;16.96;45.09
66752;SHT31;53663;42.676;23.238;2023-04-01T07:34:55;21.46;34.49
66752;SHT31;53663;42.676;23.238;2023-04-01T07:37:47;19.68;37.70
66752;SHT31;53663;42.676;23.238;2023-04-01T07:40:20;18.67;39.81
66752;SHT31;53663;42.676;23.238;2023-04-01T07:48:35;16.41;46.62
66752;SHT31;53663;42.676;23.238;2023-04-01T07:51:29;16.41;45.78
66752;SHT31;53663;42.676;23.238;2023-04-01T08:10:57;15.62;49.72
66752;SHT31;53663;42.676;23.238;2023-04-01T08:14:03;15.45;49.01
66752;SHT31;53663;42.676;23.238;2023-04-01T08:22:40;15.54;49.83
66752;SHT31;53663;42.676;23.238;2023-04-01T08:25:26;15.44;48.90
66752;SHT31;53663;42.676;23.238;2023-04-01T08:28:14;16.37;47.01
66752;SHT31;53663;42.676;23.238;2023-04-01T08:30:46;19.48;41.68
66752;SHT31;53663;42.676;23.238;2023-04-01T08:33:27;22.50;34.86
66752;SHT31;53663;42.676;23.238;2023-04-01T08:36:25;23.03;33.51
66752;SHT31;53663;42.676;23.238;2023-04-01T08:39:10;23.74;32.77
66752;SHT31;53663;42.676;23.238;2023-04-01T08:44:36;24.64;33.44
66752;SHT31;53663;42.676;23.238;2023-04-01T08:55:40;22.77;34.08
66752;SHT31;53663;42.676;23.238;2023-04-01T09:35:47;17.88;33.91
66752;SHT31;53663;42.676;23.238;2023-04-01T09:46:56;18.09;35.45
66752;SHT31;53663;42.676;23.238;2023-04-01T09:49:33;18.33;34.42
66752;SHT31;53663;42.676;23.238;2023-04-01T09:55:05;18.87;35.54
66752;SHT31;53663;42.676;23.238;2023-04-01T10:06:32;18.24;36.69
66752;SHT31;53663;42.676;23.238;2023-04-01T10:18:05;17.54;35.95
66752;SHT31;53663;42.676;23.238;2023-04-01T10:20:25;18.02;35.96
66752;SHT31;53663;42.676;23.238;2023-04-01T10:37:30;17.98;34.91
66752;SHT31;53663;42.676;23.238;2023-04-01T10:51:43;18.24;35.34
66752;SHT31;53663;42.676;23.238;2023-04-01T10:54:45;18.50;34.53
66752;SHT31;53663;42.676;23.238;2023-04-01T11:01:14;18.09;35.04
66752;SHT31;53663;42.676;23.238;2023-04-01T11:13:55;17.54;36.23
66752;SHT31;53663;42.676;23.238;2023-04-01T11:19:32;17.27;37.47
66752;SHT31;53663;42.676;23.238;2023-04-01T11:36:40;15.88;53.23
66752;SHT31;53663;42.676;23.238;2023-04-01T11:39:23;15.54;54.75
66752;SHT31;53663;42.676;23.238;2023-04-01T11:42:24;15.06;60.23
66752;SHT31;53663;42.676;23.238;2023-04-01T11:45:35;14.39;64.84
66752;SHT31;53663;42.676;23.238;2023-04-01T11:53:35;13.47;69.49
66752;SHT31;53663;42.676;23.238;2023-04-01T12:02:50;13.02;73.30
66752;SHT31;53663;42.676;23.238;2023-04-01T12:05:45;13.02;72.48
66752;SHT31;53663;42.676;23.238;2023-04-01T12:10:59;13.14;72.50
66752;SHT31;53663;42.676;23.238;2023-04-01T12:22:02;14.46;68.35
66752;SHT31;53663;42.676;23.238;2023-04-01T12:24:25;14.72;68.75
66752;SHT31;53663;42.676;23.238;2023-04-01T12:35:13;14.08;70.57
66752;SHT31;53663;42.676;23.238;2023-04-01T12:37:50;13.73;71.02
66752;SHT31;53663;42.676;23.238;2023-04-01T12:45:45;13.36;68.79
66752;SHT31;53663;42.676;23.238;2023-04-01T12:56:57;12.06;70.26
66752;SHT31;53663;42.676;23.238;2023-04-01T12:59:42;12.08;73.40
66752;SHT31;53663;42.676;23.238;2023-04-01T13:02:30;11.74;74.63
66752;SHT31;53663;42.676;23.238;2023-04-01T13:21:16;12.51;70.93
66752;SHT31;53663;42.676;23.238;2023-04-01T13:27:29;12.54;68.83
66752;SHT31;53663;42.676;23.238;2023-04-01T13:43:42;13.20;64.58
66752;SHT31;53663;42.676;23.238;2023-04-01T14:17:10;14.42;56.64
66752;SHT31;53663;42.676;23.238;2023-04-01T14:20:02;14.62;54.09
66752;SHT31;53663;42.676;23.238;2023-04-01T14:22:39;14.52;53.86
66752;SHT31;53663;42.676;23.238;2023-04-01T14:31:27;14.80;54.44
66752;SHT31;53663;42.676;23.238;2023-04-01T14:34:26;14.99;54.06
66752;SHT31;53663;42.676;23.238;2023-04-01T14:47:54;15.19;50.94
66752;SHT31;53663;42.676;23.238;2023-04-01T14:50:23;15.37;51.62
66752;SHT31;53663;42.676;23.238;2023-04-01T14:55:50;15.48;52.61
66752;SHT31;53663;42.676;23.238;2023-04-01T14:58:17;15.26;51.97
66752;SHT31;53663;42.676;23.238;2023-04-01T15:06:31;14.36;55.25
66752;SHT31;53663;42.676;23.238;2023-04-01T15:09:03;14.15;55.69
66752;SHT31;53663;42.676;23.238;2023-04-01T15:11:48;13.90;54.12
66752;SHT31;53663;42.676;23.238;2023-04-01T15:22:27;14.10;53.79
66752;SHT31;53663;42.676;23.238;2023-04-01T15:40:47;13.78;53.90
66752;SHT31;53663;42.676;23.238;2023-04-01T15:43:31;13.87;54.29
66752;SHT31;53663;42.676;23.238;2023-04-01T15:49:01;12.85;59.60
66752;SHT31;53663;42.676;23.238;2023-04-01T15:51:52;12.03;62.25
66752;SHT31;53663;42.676;23.238;2023-04-01T16:00:13;10.85;71.62
66752;SHT31;53663;42.676;23.238;2023-04-01T16:02:48;10.44;72.33
66752;SHT31;53663;42.676;23.238;2023-04-01T16:08:22;9.76;77.52
66752;SHT31;53663;42.676;23.238;2023-04-01T16:11:09;9.65;78.39
66752;SHT31;53663;42.676;23.238;2023-04-01T16:16:43;9.36;77.90
66752;SHT31;53663;42.676;23.238;2023-04-01T16:21:52;9.18;77.70
66752;SHT31;53663;42.676;23.238;2023-04-01T16:24:44;9.10;78.11
66752;SHT31;53663;42.676;23.238;2023-04-01T16:30:00;9.20;77.61
66752;SHT31;53663;42.676;23.238;2023-04-01T16:38:25;9.10;77.03
66752;SHT31;53663;42.676;23.238;2023-04-01T16:41:14;9.10;76.94
66752;SHT31;53663;42.676;23.238;2023-04-01T16:46:23;9.03;77.63
66752;SHT31;53663;42.676;23.238;2023-04-01T16:52:04;9.05;77.02
66752;SHT31;53663;42.676;23.238;2023-04-01T16:54:55;9.07;77.17
66752;SHT31;53663;42.676;23.238;2023-04-01T16:57:28;9.12;77.44
66752;SHT31;53663;42.676;23.238;2023-04-01T17:00:12;9.11;77.47
66752;SHT31;53663;42.676;23.238;2023-04-01T17:03:13;9.12;76.11
66752;SHT31;53663;42.676;23.238;2023-04-01T17:14:22;8.81;76.14
66752;SHT31;53663;42.676;23.238;2023-04-01T17:19:49;8.83;76.11
66752;SHT31;53663;42.676;23.238;2023-04-01T17:22:32;8.76;76.11
66752;SHT31;53663;42.676;23.238;2023-04-01T17:25:28;8.63;75.77
66752;SHT31;53663;42.676;23.238;2023-04-01T17:33:45;8.16;78.10
66752;SHT31;53663;42.676;23.238;2023-04-01T17:39:22;7.99;78.24
66752;SHT31;53663;42.676;23.238;2023-04-01T17:42:16;7.91;78.75
66752;SHT31;53663;42.676;23.238;2023-04-01T17:44:57;7.91;79.02
66752;SHT31;53663;42.676;23.238;2023-04-01T17:50:14;7.98;79.00
66752;SHT31;53663;42.676;23.238;2023-04-01T17:52:55;7.88;78.89
66752;SHT31;53663;42.676;23.238;2023-04-01T18:01:16;7.69;78.66
66752;SHT31;53663;42.676;23.238;2023-04-01T18:09:09;7.64;78.99
66752;SHT31;53663;42.676;23.238;2023-04-01T18:11:56;7.80;78.42
66752;SHT31;53663;42.676;23.238;2023-04-01T18:14:43;7.95;77.69
66752;SHT31;53663;42.676;23.238;2023-04-01T18:17:33;8.05;76.86
66752;SHT31;53663;42.676;23.238;2023-04-01T18:23:03;8.05;76.63
66752;SHT31;53663;42.676;23.238;2023-04-01T18:25:41;8.01;76.30
66752;SHT31;53663;42.676;23.238;2023-04-01T18:28:36;7.95;76.51
66752;SHT31;53663;42.676;23.238;2023-04-01T18:36:40;7.73;78.18
66752;SHT31;53663;42.676;23.238;2023-04-01T18:39:17;7.77;78.20
66752;SHT31;53663;42.676;23.238;2023-04-01T18:42:05;7.71;78.94
66752;SHT31;53663;42.676;23.238;2023-04-01T18:44:43;7.80;79.01
66752;SHT31;53663;42.676;23.238;2023-04-01T18:49:59;7.71;78.75
66752;SHT31;53663;42.676;23.238;2023-04-01T18:52:36;7.70;78.37
66752;SHT31;53663;42.676;23.238;2023-04-01T19:00:49;7.70;78.01
66752;SHT31;53663;42.676;23.238;2023-04-01T19:05:48;7.71;76.88
66752;SHT31;53663;42.676;23.238;2023-04-01T19:08:34;7.62;77.09
66752;SHT31;53663;42.676;23.238;2023-04-01T19:11:09;7.66;75.13
66752;SHT31;53663;42.676;23.238;2023-04-01T19:22:49;7.87;75.14
66752;SHT31;53663;42.676;23.238;2023-04-01T19:30:56;7.94;75.00
66752;SHT31;53663;42.676;23.238;2023-04-01T19:39:27;7.93;75.11
66752;SHT31;53663;42.676;23.238;2023-04-01T19:47:59;7.77;75.83
66752;SHT31;53663;42.676;23.238;2023-04-01T19:50:37;7.81;75.22
66752;SHT31;53663;42.676;23.238;2023-04-01T19:53:28;7.83;74.90
66752;SHT31;53663;42.676;23.238;2023-04-01T19:56:06;7.85;74.49
66752;SHT31;53663;42.676;23.238;2023-04-01T20:01:21;7.88;73.72
66752;SHT31;53663;42.676;23.238;2023-04-01T20:03:54;7.93;73.07
66752;SHT31;53663;42.676;23.238;2023-04-01T20:06:32;7.99;71.95
66752;SHT31;53663;42.676;23.238;2023-04-01T20:09:14;8.02;70.51
66752;SHT31;53663;42.676;23.238;2023-04-01T20:14:51;7.66;70.84
66752;SHT31;53663;42.676;23.238;2023-04-01T20:17:42;7.60;70.65
66752;SHT31;53663;42.676;23.238;2023-04-01T20:25:41;7.40;71.61
66752;SHT31;53663;42.676;23.238;2023-04-01T20:28:19;7.32;71.63
66752;SHT31;53663;42.676;23.238;2023-04-01T20:31:09;7.33;71.78
66752;SHT31;53663;42.676;23.238;2023-04-01T20:50:29;7.26;71.58
66752;SHT31;53663;42.676;23.238;2023-04-01T20:53:39;7.26;71.88
66752;SHT31;53663;42.676;23.238;2023-04-01T20:56:41;7.18;71.40
66752;SHT31;53663;42.676;23.238;2023-04-01T21:02:29;7.20;71.78
66752;SHT31;53663;42.676;23.238;2023-04-01T21:13:24;7.37;70.60
66752;SHT31;53663;42.676;23.238;2023-04-01T21:18:49;7.36;70.82
66752;SHT31;53663;42.676;23.238;2023-04-01T21:27:20;7.60;70.69
66752;SHT31;53663;42.676;23.238;2023-04-01T21:35:44;7.46;71.21
66752;SHT31;53663;42.676;23.238;2023-04-01T21:38:28;7.45;70.79
66752;SHT31;53663;42.676;23.238;2023-04-01T21:41:18;7.36;71.12
66752;SHT31;53663;42.676;23.238;2023-04-01T21:44:05;7.29;71.19
66752;SHT31;53663;42.676;23.238;2023-04-01T21:49:27;7.25;70.65
66752;SHT31;53663;42.676;23.238;2023-04-01T22:00:46;7.06;71.22
66752;SHT31;53663;42.676;23.238;2023-04-01T22:05:39;7.04;71.32
66752;SHT31;53663;42.676;23.238;2023-04-01T22:13:41;7.09;69.97
66752;SHT31;53663;42.676;23.238;2023-04-01T22:18:58;7.02;70.73
66752;SHT31;53663;42.676;23.238;2023-04-01T22:21:48;6.97;70.28
66752;SHT31;53663;42.676;23.238;2023-04-01T22:27:18;6.95;70.86
66752;SHT31;53663;42.676;23.238;2023-04-01T22:35:17;6.91;69.97
66752;SHT31;53663;42.676;23.238;2023-04-01T22:38:18;6.94;69.81
66752;SHT31;53663;42.676;23.238;2023-04-01T22:41:15;6.94;69.36
66752;SHT31;53663;42.676;23.238;2023-04-01T22:43:46;6.97;69.54
66752;SHT31;53663;42.676;23.238;2023-04-01T22:51:51;6.89;69.56
66752;SHT31;53663;42.676;23.238;2023-04-01T22:56:55;6.95;69.11
66752;SHT31;53663;42.676;23.238;2023-04-01T23:02:28;7.09;68.55
66752;SHT31;53663;42.676;23.238;2023-04-01T23:05:00;7.20;67.75
66752;SHT31;53663;42.676;23.238;2023-04-01T23:10:44;7.11;68.29
66752;SHT31;53663;42.676;23.238;2023-04-01T23:13:18;6.98;68.88
66752;SHT31;53663;42.676;23.238;2023-04-01T23:15:45;6.98;69.18
66752;SHT31;53663;42.676;23.238;2023-04-01T23:21:28;6.88;69.82
66752;SHT31;53663;42.676;23.238;2023-04-01T23:26:34;6.77;70.66
66752;SHT31;53663;42.676;23.238;2023-04-01T23:29:04;6.92;69.56
66752;SHT31;53663;42.676;23.238;2023-04-01T23:31:39;6.95;69.21
66752;SHT31;53663;42.676;23.238;2023-04-01T23:36:42;6.94;68.97
66752;SHT31;53663;42.676;23.238;2023-04-01T23:41:48;6.94;68.42
66752;SHT31;53663;42.676;23.238;2023-04-01T23:44:15;6.89;68.45
66752;SHT31;53663;42.676;23.238;2023-04-01T23:46:42;6.94;68.15
66752;SHT31;53663;42.676;23.238;2023-04-01T23:49:14;6.94;68.25
66752;SHT31;53663;42.676;23.238;2023-04-01T23:51:55;7.05;67.54
66752;SHT31;53663;42.676;23.238;2023-04-01T23:54:31;6.91;68.21
66752;SHT31;53663;42.676;23.238;2023-04-01T23:56:58;6.92;68.39
66752;SHT31;53663;42.676;23.238;2023-04-01T23:59:32;6.88;68.68
